createdAt,value
2019-03-17T00:00:44.473Z,2.00
2019-03-17T00:05:51.277Z,2.75
2019-03-17T00:10:55.080Z,2.00
2019-03-17T00:15:59.199Z,1.00
2019-03-17T00:21:03.108Z,2.75
2019-03-17T00:26:06.913Z,2.00
2019-03-17T00:31:22.915Z,1.00
2019-03-17T00:36:16.222Z,1.20
2019-03-17T00:41:19.992Z,1.00
2019-03-17T00:46:23.784Z,1.60
2019-03-17T00:51:27.877Z,1.00
2019-03-17T00:56:31.672Z,1.00
2019-03-17T01:01:35.431Z,1.00
2019-03-17T01:06:39.193Z,2.25
2019-03-17T01:11:42.954Z,1.00
2019-03-17T01:16:46.875Z,1.00
2019-03-17T01:21:50.907Z,1.00
2019-03-17T01:26:54.655Z,1.25
2019-03-17T01:31:58.423Z,2.00
2019-03-17T01:37:02.303Z,1.00
2019-03-17T01:42:06.105Z,2.00
2019-03-17T01:47:09.926Z,1.00
2019-03-17T01:52:13.680Z,1.25
2019-03-17T01:57:17.425Z,1.00
2019-03-17T02:02:21.222Z,1.00
2019-03-17T02:07:25.007Z,1.00
2019-03-17T02:12:28.873Z,1.25
2019-03-17T02:17:32.706Z,2.00
2019-03-17T02:22:36.458Z,1.00
2019-03-17T02:27:40.232Z,1.00
2019-03-17T02:32:44.049Z,1.00
2019-03-17T02:37:47.899Z,0.50
2019-03-17T02:42:51.666Z,1.00
2019-03-17T02:47:55.449Z,1.00
2019-03-17T02:52:59.287Z,1.75
2019-03-17T02:58:03.066Z,1.25
2019-03-17T03:03:06.809Z,1.00
2019-03-17T03:08:10.635Z,1.00
2019-03-17T03:13:14.454Z,1.25
2019-03-17T03:18:18.300Z,0.25
2019-03-17T03:23:22.122Z,1.00
2019-03-17T03:28:25.896Z,1.00
2019-03-17T03:33:29.675Z,1.00
2019-03-17T03:38:33.454Z,1.25
2019-03-17T03:43:37.211Z,0.50
2019-03-17T03:48:40.967Z,1.00
2019-03-17T03:53:44.812Z,1.00
2019-03-17T03:58:48.683Z,1.00
2019-03-17T04:03:53.696Z,0.00
2019-03-17T04:08:57.450Z,1.00
2019-03-17T04:14:01.246Z,0.00
2019-03-17T04:19:05.030Z,0.80
2019-03-17T04:24:08.809Z,0.50
2019-03-17T04:29:13.818Z,1.00
2019-03-17T04:34:17.590Z,1.00
2019-03-17T04:39:21.417Z,0.25
2019-03-17T04:44:25.243Z,1.00
2019-03-17T04:49:29.024Z,1.00
2019-03-17T04:54:32.871Z,1.00
2019-03-17T04:59:36.628Z,1.00
2019-03-17T05:04:40.389Z,1.00
2019-03-17T05:09:44.175Z,0.40
2019-03-17T05:14:47.938Z,0.25
2019-03-17T05:19:51.752Z,0.00
2019-03-17T05:24:55.518Z,0.75
2019-03-17T05:29:59.274Z,0.50
2019-03-17T05:35:03.181Z,0.00
2019-03-17T05:40:06.940Z,0.20
2019-03-17T05:45:10.714Z,0.00
2019-03-17T05:50:14.498Z,0.00
2019-03-17T05:55:18.355Z,0.50
2019-03-17T06:00:22.326Z,0.40
2019-03-17T06:05:26.256Z,1.00
2019-03-17T06:10:30.013Z,1.00
2019-03-17T06:15:33.806Z,0.00
2019-03-17T06:20:37.573Z,0.00
2019-03-17T06:25:41.516Z,1.00
2019-03-17T06:30:45.274Z,0.00
2019-03-17T06:35:49.040Z,1.00
2019-03-17T06:40:52.914Z,0.00
2019-03-17T06:45:56.682Z,0.00
2019-03-17T06:51:00.517Z,1.00
2019-03-17T06:56:04.373Z,0.50
2019-03-17T07:01:08.133Z,0.00
2019-03-17T07:06:11.911Z,0.00
2019-03-17T07:11:15.681Z,0.00
2019-03-17T07:16:19.454Z,0.00
2019-03-17T07:21:23.258Z,0.25
2019-03-17T07:26:27.079Z,1.00
2019-03-17T07:31:30.849Z,0.00
2019-03-17T07:36:43.531Z,0.00
2019-03-17T07:41:47.315Z,0.00
2019-03-17T07:46:51.136Z,0.00
2019-03-17T07:51:54.936Z,0.25
2019-03-17T07:56:58.786Z,0.75
2019-03-17T08:02:02.653Z,1.00
2019-03-17T08:07:06.497Z,1.00
2019-03-17T08:12:10.296Z,1.00
2019-03-17T08:17:14.113Z,1.00
2019-03-17T08:22:17.927Z,1.00
2019-03-17T08:27:21.773Z,1.20
2019-03-17T08:32:25.613Z,1.00
2019-03-17T08:37:29.425Z,2.00
2019-03-17T08:42:33.304Z,2.20
2019-03-17T08:47:37.181Z,2.00
2019-03-17T08:52:40.994Z,2.00
2019-03-17T08:57:44.811Z,2.00
2019-03-17T09:02:48.596Z,1.80
2019-03-17T09:07:52.385Z,2.00
2019-03-17T09:12:56.290Z,2.00
2019-03-17T09:18:00.066Z,3.00
2019-03-17T09:23:03.890Z,3.00
2019-03-17T09:28:07.686Z,3.00
2019-03-17T09:33:11.468Z,2.50
2019-03-17T09:38:15.373Z,1.75
2019-03-17T09:43:19.171Z,3.00
2019-03-17T09:48:22.986Z,2.00
2019-03-17T09:53:28.624Z,2.00
2019-03-17T09:58:32.324Z,3.00
2019-03-17T10:03:36.108Z,2.00
2019-03-17T10:08:39.928Z,1.50
2019-03-17T10:13:43.717Z,1.60
2019-03-17T10:18:47.577Z,2.50
2019-03-17T10:23:51.399Z,2.00
2019-03-17T10:28:55.220Z,2.75
2019-03-17T10:33:59.023Z,3.00
2019-03-17T10:39:12.274Z,2.20
2019-03-17T10:44:08.920Z,2.75
2019-03-17T10:49:12.717Z,3.00
2019-03-17T10:54:16.505Z,2.00
2019-03-17T10:59:20.433Z,2.00
2019-03-17T11:04:24.408Z,2.20
2019-03-17T11:09:28.203Z,4.00
2019-03-17T11:14:32.099Z,1.75
2019-03-17T11:19:35.908Z,2.40
2019-03-17T11:24:39.843Z,2.50
2019-03-17T11:29:43.671Z,2.00
2019-03-17T11:34:47.651Z,2.00
2019-03-17T11:39:51.447Z,3.00
2019-03-17T11:44:55.228Z,2.00
2019-03-17T11:49:59.023Z,2.80
2019-03-17T11:55:02.892Z,3.00
2019-03-17T12:00:07.636Z,3.00
2019-03-17T12:05:11.445Z,3.00
2019-03-17T12:10:15.267Z,3.00
2019-03-17T12:15:19.206Z,3.00
2019-03-17T12:20:23.056Z,3.00
2019-03-17T12:25:26.837Z,2.00
2019-03-17T12:30:30.622Z,3.20
2019-03-17T12:35:34.467Z,3.00
2019-03-17T12:40:38.276Z,2.25
2019-03-17T12:45:42.145Z,2.00
2019-03-17T12:50:45.943Z,2.40
2019-03-17T12:55:49.764Z,2.00
2019-03-17T13:00:53.778Z,3.00
2019-03-17T13:05:57.602Z,4.00
2019-03-17T13:11:01.953Z,2.50
2019-03-17T13:16:05.767Z,1.00
2019-03-17T13:21:09.616Z,2.00
2019-03-17T13:26:13.447Z,2.00
2019-03-17T13:31:17.243Z,2.20
2019-03-17T13:36:21.136Z,2.00
2019-03-17T13:41:25.130Z,2.00
2019-03-17T13:46:29.343Z,5.20
2019-03-17T13:51:33.220Z,2.00
2019-03-17T13:56:37.048Z,2.00
2019-03-17T14:01:40.834Z,3.00
2019-03-17T14:06:44.665Z,2.00
2019-03-17T14:11:48.442Z,3.00
2019-03-17T14:16:52.550Z,2.00
2019-03-17T14:21:56.399Z,2.00
2019-03-17T14:27:00.171Z,2.00
2019-03-17T14:32:04.056Z,1.60
2019-03-17T14:37:07.839Z,2.00
2019-03-17T14:42:11.654Z,1.75
2019-03-17T14:47:15.444Z,1.00
2019-03-17T14:52:19.216Z,2.00
2019-03-17T14:57:22.982Z,1.00
2019-03-17T15:02:26.765Z,1.00
2019-03-17T15:07:30.567Z,2.00
2019-03-17T15:12:34.384Z,2.40
2019-03-17T15:17:38.159Z,2.00
2019-03-17T15:22:41.920Z,0.75
2019-03-17T15:27:45.744Z,1.75
2019-03-17T15:32:49.560Z,2.00
2019-03-17T15:37:53.445Z,1.00
2019-03-17T15:42:57.308Z,1.00
2019-03-17T15:48:03.966Z,2.80
2019-03-17T15:53:06.641Z,1.00
2019-03-17T15:58:10.409Z,2.00
2019-03-17T16:03:14.195Z,2.00
2019-03-17T16:08:17.982Z,1.25
2019-03-17T16:13:21.779Z,1.00
2019-03-17T16:18:25.537Z,1.00
2019-03-17T16:23:29.302Z,1.00
2019-03-17T16:28:33.108Z,1.00
2019-03-17T16:33:36.943Z,0.25
2019-03-17T16:38:40.858Z,1.00
2019-03-17T16:43:44.728Z,2.00
2019-03-17T16:48:48.804Z,0.50
2019-03-17T16:53:52.605Z,0.75
2019-03-17T16:58:56.426Z,1.00
2019-03-17T17:04:00.236Z,1.00
2019-03-17T17:09:05.393Z,1.00
2019-03-17T17:14:09.329Z,0.60
2019-03-17T17:19:13.146Z,1.00
2019-03-17T17:24:16.948Z,2.00
2019-03-17T17:29:20.830Z,1.50
2019-03-17T17:34:24.641Z,1.00
2019-03-17T17:39:28.590Z,0.50
2019-03-17T17:44:32.397Z,0.00
2019-03-17T17:49:36.226Z,0.75
2019-03-17T17:54:40.100Z,0.00
2019-03-17T17:59:43.889Z,0.25
2019-03-17T18:04:47.773Z,1.00
2019-03-17T18:09:51.810Z,1.00
2019-03-17T18:14:55.613Z,0.80
2019-03-17T18:19:59.564Z,1.00
2019-03-17T18:25:05.028Z,0.20
2019-03-17T18:30:10.584Z,1.60
2019-03-17T18:35:14.385Z,1.60
2019-03-17T18:40:18.183Z,1.00
2019-03-17T18:45:22.065Z,2.00
2019-03-17T18:50:26.874Z,1.00
2019-03-17T18:55:30.665Z,3.00
2019-03-17T19:00:34.460Z,2.00
2019-03-17T19:05:38.278Z,1.25
2019-03-17T19:10:42.125Z,2.20
2019-03-17T19:15:45.914Z,2.00
2019-03-17T19:20:49.682Z,3.00
2019-03-17T19:25:53.471Z,1.75
2019-03-17T19:30:57.332Z,1.00
2019-03-17T19:36:01.161Z,1.00
2019-03-17T19:41:05.347Z,1.00
2019-03-17T19:46:09.210Z,1.00
2019-03-17T19:51:13.028Z,1.00
2019-03-17T19:56:16.860Z,1.00
2019-03-17T20:01:20.677Z,1.00
2019-03-17T20:06:24.461Z,0.00
2019-03-17T20:11:28.229Z,1.00
2019-03-17T20:16:31.994Z,1.00
2019-03-17T20:21:37.071Z,1.00
2019-03-17T20:26:40.854Z,1.60
2019-03-17T20:31:44.646Z,1.00
2019-03-17T20:36:48.530Z,1.00
2019-03-17T20:41:52.363Z,1.00
2019-03-17T20:46:55.109Z,1.00
2019-03-17T20:51:57.984Z,1.80
2019-03-17T20:57:01.832Z,1.00
2019-03-17T21:02:05.882Z,1.00
2019-03-17T21:07:09.726Z,1.00
2019-03-17T21:12:13.673Z,1.00
2019-03-17T21:17:17.560Z,1.00
2019-03-17T21:22:21.360Z,0.60
2019-03-17T21:27:25.243Z,1.00
2019-03-17T21:32:29.088Z,1.00
2019-03-17T21:37:32.867Z,1.00
2019-03-17T21:42:36.649Z,1.00
2019-03-17T21:47:40.479Z,1.00
2019-03-17T21:52:44.255Z,1.00
2019-03-17T21:57:48.062Z,0.80
2019-03-17T22:02:54.976Z,0.00
2019-03-17T22:07:58.106Z,1.20
2019-03-17T22:13:01.921Z,1.00
2019-03-17T22:18:05.862Z,1.00
2019-03-17T22:23:09.640Z,1.25
2019-03-17T22:28:13.517Z,1.00
2019-03-17T22:33:17.282Z,1.80
2019-03-17T22:38:21.099Z,1.00
2019-03-17T22:43:24.896Z,1.25
2019-03-17T22:48:28.664Z,0.00
2019-03-17T22:53:32.435Z,0.00
2019-03-17T22:58:36.231Z,1.00
2019-03-17T23:03:40.001Z,1.00
2019-03-17T23:08:43.800Z,0.00
2019-03-17T23:13:47.660Z,1.00
2019-03-17T23:18:51.470Z,1.50
2019-03-17T23:23:55.282Z,1.00
2019-03-17T23:28:59.097Z,0.60
2019-03-17T23:34:03.102Z,1.00
2019-03-17T23:39:07.698Z,0.20
2019-03-17T23:44:11.507Z,0.50
2019-03-17T23:49:15.314Z,0.50
2019-03-17T23:54:19.121Z,1.00
2019-03-17T23:59:22.927Z,0.60
